Ana Sayfa
METAR-TAF:

METAR-TAF

Havaalanları :

New York / LaGuardia, New York, Amerika Birleşik Devletleri

LaGuardia Havalimanı

Enlem: 40-46-45N, Boylam: 073-52-48W, yükseklik: 6 m

Güncel hava durumu gözlemi

Rapor saat 08:51 UTC de 27 dakika önce yapıldı.
Rüzgar batıdan 7 kt
Sıcaklık -3°C
Nem 54%
Basınç 1018 hPa
Görüş mesafesi: 16.1 km
Açık gökyüzü

METAR: KLGA 190851Z 27007KT 10SM CLR M03/M11 A3005 RMK AO2 SLP177 T10281111 53003

Saat: 04:18 (09:18 UTC)

Tahmin

Rapor saat 08:17 UTC de 1 saat ve 1 dakika önce yapıldı.
Ayın 19'si saat 08 UTC'den ayın 20'si saat 12 UTC'ye kadar geçerli Tahmin
Rüzgar batı/kuzeybatıdan 9 kt
Görüş mesafesi: 10 km
Açık gökyüzü
Ayın 19'si saat 1500 UTC'den
Rüzgar batıdan 12 kt
Görüş mesafesi: 10 km
20000 ft yükseklikte az bulutlu
Ayın 19'si saat 2300 UTC'den
Rüzgar güneybatıdan 7 kt
Görüş mesafesi: 10 km
15000 ft yükseklikte az bulutlu

TAF: KLGA 190817Z 1908/2012 29009KT P6SM SKC FM191500 26012KT P6SM FEW200 FM192300 23007KT P6SM FEW150

4.000'den fazla havaalanı için hava durumu gözlemleri ve tahminleri (METAR ve TAF raporları).

Kullanılabilir istasyonlar harita üzerinde sarı ve kırmızı noktalarla gösterilir.

İstasyonun adını görmek için fareyi noktanın üzerinde gezdirin.

Sonrasında hava gözlem ve tahminlerini görmek için tıklayın.

Haritayı değiştirmek için: yaklaştırmak için siyah artı işaretli yeşil düğmeye ve uzaklaştırmak için de eksi işaretli düğmeye hızla tıklayın; bitişik haritalar için yeşil okları kullanın.


METAR-TAF: